sensor_id;sensor_type;location;lat;lon;timestamp;pressure;altitude;pressure_sealevel;temperature;humidity
8051;BME280;4068;42.158;24.732;2023-04-15T00:01:54;98900.25;;;11.37;100.00
8051;BME280;4068;42.158;24.732;2023-04-15T00:04:19;98872.91;;;11.27;100.00
8051;BME280;4068;42.158;24.732;2023-04-15T00:06:50;98898.47;;;11.37;100.00
8051;BME280;4068;42.158;24.732;2023-04-15T00:09:17;98894.97;;;11.27;100.00
8051;BME280;4068;42.158;24.732;2023-04-15T00:11:43;98884.09;;;11.30;100.00
8051;BME280;4068;42.158;24.732;2023-04-15T00:14:09;98864.72;;;11.10;100.00
8051;BME280;4068;42.158;24.732;2023-04-15T00:16:35;98894.72;;;11.20;100.00
8051;BME280;4068;42.158;24.732;2023-04-15T00:19:01;98887.53;;;10.93;100.00
8051;BME280;4068;42.158;24.732;2023-04-15T00:21:26;98890.56;;;10.88;100.00
8051;BME280;4068;42.158;24.732;2023-04-15T00:23:53;98911.66;;;10.90;100.00
8051;BME280;4068;42.158;24.732;2023-04-15T00:26:18;98916.28;;;10.88;100.00
8051;BME280;4068;42.158;24.732;2023-04-15T00:28:45;98928.28;;;11.02;100.00
8051;BME280;4068;42.158;24.732;2023-04-15T00:31:11;98900.50;;;10.86;100.00
8051;BME280;4068;42.158;24.732;2023-04-15T00:33:36;98895.19;;;10.67;100.00
8051;BME280;4068;42.158;24.732;2023-04-15T00:36:03;98913.19;;;10.93;100.00
8051;BME280;4068;42.158;24.732;2023-04-15T00:38:28;98871.19;;;10.78;100.00
8051;BME280;4068;42.158;24.732;2023-04-15T00:40:54;98893.50;;;10.95;100.00
8051;BME280;4068;42.158;24.732;2023-04-15T00:43:20;98879.72;;;10.92;100.00
8051;BME280;4068;42.158;24.732;2023-04-15T00:45:46;98902.84;;;10.99;100.00
8051;BME280;4068;42.158;24.732;2023-04-15T00:48:12;98903.69;;;11.00;100.00
8051;BME280;4068;42.158;24.732;2023-04-15T00:50:37;98895.72;;;11.00;100.00
8051;BME280;4068;42.158;24.732;2023-04-15T00:53:03;98899.78;;;11.04;100.00
8051;BME280;4068;42.158;24.732;2023-04-15T00:55:28;98881.81;;;10.78;100.00
8051;BME280;4068;42.158;24.732;2023-04-15T00:57:56;98899.53;;;10.87;100.00
8051;BME280;4068;42.158;24.732;2023-04-15T01:00:21;98903.44;;;10.74;100.00
8051;BME280;4068;42.158;24.732;2023-04-15T01:02:48;98898.97;;;10.74;100.00
8051;BME280;4068;42.158;24.732;2023-04-15T01:05:13;98896.88;;;10.78;100.00
8051;BME280;4068;42.158;24.732;2023-04-15T01:07:41;98842.19;;;10.47;100.00
8051;BME280;4068;42.158;24.732;2023-04-15T01:10:07;98866.75;;;10.59;100.00
8051;BME280;4068;42.158;24.732;2023-04-15T01:12:33;98893.81;;;10.73;100.00
8051;BME280;4068;42.158;24.732;2023-04-15T01:14:59;98860.28;;;10.32;100.00
8051;BME280;4068;42.158;24.732;2023-04-15T01:17:26;98890.00;;;10.36;100.00
8051;BME280;4068;42.158;24.732;2023-04-15T01:19:55;98896.09;;;10.07;100.00
8051;BME280;4068;42.158;24.732;2023-04-15T01:22:21;98894.41;;;9.96;100.00
8051;BME280;4068;42.158;24.732;2023-04-15T01:25:04;98889.34;;;9.83;100.00
8051;BME280;4068;42.158;24.732;2023-04-15T01:27:31;98914.19;;;9.92;100.00
8051;BME280;4068;42.158;24.732;2023-04-15T01:29:57;98927.25;;;9.84;100.00
8051;BME280;4068;42.158;24.732;2023-04-15T01:32:22;98919.28;;;9.74;100.00
8051;BME280;4068;42.158;24.732;2023-04-15T01:34:48;98906.13;;;9.63;100.00
8051;BME280;4068;42.158;24.732;2023-04-15T01:37:13;98914.97;;;9.83;100.00
8051;BME280;4068;42.158;24.732;2023-04-15T01:39:39;98921.16;;;9.93;100.00
8051;BME280;4068;42.158;24.732;2023-04-15T01:42:05;98908.16;;;9.90;100.00
8051;BME280;4068;42.158;24.732;2023-04-15T01:44:31;98919.22;;;9.95;100.00
8051;BME280;4068;42.158;24.732;2023-04-15T01:46:56;98923.53;;;9.96;100.00
8051;BME280;4068;42.158;24.732;2023-04-15T01:49:22;98925.75;;;9.91;100.00
8051;BME280;4068;42.158;24.732;2023-04-15T01:51:48;98931.84;;;9.82;100.00
8051;BME280;4068;42.158;24.732;2023-04-15T01:54:13;98920.47;;;9.60;100.00
8051;BME280;4068;42.158;24.732;2023-04-15T01:56:39;98943.91;;;9.65;100.00
8051;BME280;4068;42.158;24.732;2023-04-15T01:59:04;98952.75;;;9.54;100.00
8051;BME280;4068;42.158;24.732;2023-04-15T02:01:30;98952.31;;;9.49;100.00
8051;BME280;4068;42.158;24.732;2023-04-15T02:03:56;98961.53;;;9.55;100.00
8051;BME280;4068;42.158;24.732;2023-04-15T02:06:22;98951.75;;;9.45;100.00
8051;BME280;4068;42.158;24.732;2023-04-15T02:08:47;98954.13;;;9.48;100.00
8051;BME280;4068;42.158;24.732;2023-04-15T02:11:13;98948.25;;;9.45;100.00
8051;BME280;4068;42.158;24.732;2023-04-15T02:13:38;98959.09;;;9.42;100.00
8051;BME280;4068;42.158;24.732;2023-04-15T02:16:15;98965.19;;;9.32;100.00
8051;BME280;4068;42.158;24.732;2023-04-15T02:18:45;98960.97;;;9.30;100.00
8051;BME280;4068;42.158;24.732;2023-04-15T02:21:11;98962.59;;;9.21;100.00
8051;BME280;4068;42.158;24.732;2023-04-15T02:23:37;98964.50;;;9.19;100.00
8051;BME280;4068;42.158;24.732;2023-04-15T02:26:02;98940.28;;;9.14;100.00
8051;BME280;4068;42.158;24.732;2023-04-15T02:28:27;98958.31;;;9.30;100.00
8051;BME280;4068;42.158;24.732;2023-04-15T02:30:53;98960.22;;;9.39;100.00
8051;BME280;4068;42.158;24.732;2023-04-15T02:33:21;98950.59;;;9.38;100.00
8051;BME280;4068;42.158;24.732;2023-04-15T02:35:47;98944.34;;;9.39;100.00
8051;BME280;4068;42.158;24.732;2023-04-15T02:38:13;98948.13;;;9.46;100.00
8051;BME280;4068;42.158;24.732;2023-04-15T02:40:40;98911.75;;;9.18;100.00
8051;BME280;4068;42.158;24.732;2023-04-15T02:43:06;98939.13;;;9.28;100.00
8051;BME280;4068;42.158;24.732;2023-04-15T02:45:32;98948.34;;;9.33;100.00
8051;BME280;4068;42.158;24.732;2023-04-15T02:47:57;98955.34;;;9.44;100.00
8051;BME280;4068;42.158;24.732;2023-04-15T02:50:23;98951.75;;;9.45;100.00
8051;BME280;4068;42.158;24.732;2023-04-15T02:52:50;98971.75;;;9.59;100.00
8051;BME280;4068;42.158;24.732;2023-04-15T02:55:16;98984.00;;;9.60;100.00
8051;BME280;4068;42.158;24.732;2023-04-15T02:57:42;98992.00;;;9.70;100.00
8051;BME280;4068;42.158;24.732;2023-04-15T03:00:08;98991.22;;;9.79;100.00
8051;BME280;4068;42.158;24.732;2023-04-15T03:02:37;98983.00;;;9.82;100.00
8051;BME280;4068;42.158;24.732;2023-04-15T03:05:03;98987.06;;;9.87;100.00
8051;BME280;4068;42.158;24.732;2023-04-15T03:07:30;98980.25;;;9.94;100.00
8051;BME280;4068;42.158;24.732;2023-04-15T03:09:55;98976.19;;;9.90;100.00
8051;BME280;4068;42.158;24.732;2023-04-15T03:12:21;98961.94;;;9.81;100.00
8051;BME280;4068;42.158;24.732;2023-04-15T03:14:46;98964.69;;;9.70;100.00
8051;BME280;4068;42.158;24.732;2023-04-15T03:17:12;98951.06;;;9.53;100.00
8051;BME280;4068;42.158;24.732;2023-04-15T03:19:37;98957.78;;;9.57;100.00
8051;BME280;4068;42.158;24.732;2023-04-15T03:22:03;98987.91;;;9.66;100.00
8051;BME280;4068;42.158;24.732;2023-04-15T03:24:28;98996.34;;;9.50;100.00
8051;BME280;4068;42.158;24.732;2023-04-15T03:26:55;99004.41;;;9.27;100.00
8051;BME280;4068;42.158;24.732;2023-04-15T03:29:22;98998.34;;;9.37;100.00
8051;BME280;4068;42.158;24.732;2023-04-15T03:31:47;98995.84;;;9.35;100.00
8051;BME280;4068;42.158;24.732;2023-04-15T03:34:13;98979.44;;;9.20;100.00
8051;BME280;4068;42.158;24.732;2023-04-15T03:36:38;99005.81;;;9.31;100.00
8051;BME280;4068;42.158;24.732;2023-04-15T03:39:03;99037.84;;;9.28;100.00
8051;BME280;4068;42.158;24.732;2023-04-15T03:41:29;99043.06;;;9.19;100.00
8051;BME280;4068;42.158;24.732;2023-04-15T03:43:55;99053.88;;;9.15;100.00
8051;BME280;4068;42.158;24.732;2023-04-15T03:46:21;99049.59;;;9.03;100.00
8051;BME280;4068;42.158;24.732;2023-04-15T03:48:46;99041.00;;;8.90;100.00
8051;BME280;4068;42.158;24.732;2023-04-15T03:51:12;99016.91;;;8.60;100.00
8051;BME280;4068;42.158;24.732;2023-04-15T03:53:56;99050.19;;;8.63;100.00
8051;BME280;4068;42.158;24.732;2023-04-15T03:56:23;99030.25;;;8.59;100.00
8051;BME280;4068;42.158;24.732;2023-04-15T03:58:48;99050.31;;;8.73;100.00
8051;BME280;4068;42.158;24.732;2023-04-15T04:01:13;99043.19;;;8.73;100.00
8051;BME280;4068;42.158;24.732;2023-04-15T04:03:39;99057.13;;;8.87;100.00
8051;BME280;4068;42.158;24.732;2023-04-15T04:06:05;99054.25;;;8.78;100.00
8051;BME280;4068;42.158;24.732;2023-04-15T04:08:30;99048.22;;;8.76;100.00
8051;BME280;4068;42.158;24.732;2023-04-15T04:10:56;99065.19;;;8.74;100.00
8051;BME280;4068;42.158;24.732;2023-04-15T04:13:22;99063.66;;;8.71;100.00
8051;BME280;4068;42.158;24.732;2023-04-15T04:15:47;99046.25;;;8.57;100.00
8051;BME280;4068;42.158;24.732;2023-04-15T04:18:13;99053.91;;;8.60;100.00
8051;BME280;4068;42.158;24.732;2023-04-15T04:20:38;99065.56;;;8.58;100.00
8051;BME280;4068;42.158;24.732;2023-04-15T04:23:04;99068.25;;;8.46;100.00
8051;BME280;4068;42.158;24.732;2023-04-15T04:25:29;99061.97;;;8.36;100.00
8051;BME280;4068;42.158;24.732;2023-04-15T04:27:55;99068.81;;;8.27;100.00
8051;BME280;4068;42.158;24.732;2023-04-15T04:30:20;99057.88;;;8.32;100.00
8051;BME280;4068;42.158;24.732;2023-04-15T04:32:46;99052.84;;;8.40;100.00
8051;BME280;4068;42.158;24.732;2023-04-15T04:35:11;99065.50;;;8.48;100.00
8051;BME280;4068;42.158;24.732;2023-04-15T04:37:37;99066.69;;;8.55;100.00
8051;BME280;4068;42.158;24.732;2023-04-15T04:40:02;99054.78;;;8.50;100.00
8051;BME280;4068;42.158;24.732;2023-04-15T04:42:28;99071.34;;;8.63;100.00
8051;BME280;4068;42.158;24.732;2023-04-15T04:44:54;99074.59;;;8.44;100.00
8051;BME280;4068;42.158;24.732;2023-04-15T04:47:19;99066.31;;;8.49;100.00
8051;BME280;4068;42.158;24.732;2023-04-15T04:49:45;99073.03;;;8.53;100.00
8051;BME280;4068;42.158;24.732;2023-04-15T04:52:10;99071.97;;;8.55;100.00
8051;BME280;4068;42.158;24.732;2023-04-15T04:54:36;99082.41;;;8.68;100.00
8051;BME280;4068;42.158;24.732;2023-04-15T04:57:01;99085.47;;;8.85;100.00
8051;BME280;4068;42.158;24.732;2023-04-15T04:59:27;99089.41;;;9.02;100.00
8051;BME280;4068;42.158;24.732;2023-04-15T05:01:52;99084.03;;;9.24;100.00
8051;BME280;4068;42.158;24.732;2023-04-15T05:04:18;99056.56;;;9.37;100.00
8051;BME280;4068;42.158;24.732;2023-04-15T05:06:43;99058.16;;;9.49;100.00
8051;BME280;4068;42.158;24.732;2023-04-15T05:09:08;99085.69;;;9.79;100.00
8051;BME280;4068;42.158;24.732;2023-04-15T05:11:34;99069.88;;;9.67;100.00
8051;BME280;4068;42.158;24.732;2023-04-15T05:14:00;99058.31;;;9.68;100.00
8051;BME280;4068;42.158;24.732;2023-04-15T05:16:26;99089.88;;;9.81;100.00
8051;BME280;4068;42.158;24.732;2023-04-15T05:18:52;99089.56;;;9.96;100.00
8051;BME280;4068;42.158;24.732;2023-04-15T05:21:18;99067.53;;;9.95;100.00
8051;BME280;4068;42.158;24.732;2023-04-15T05:23:43;99084.22;;;10.17;100.00
8051;BME280;4068;42.158;24.732;2023-04-15T05:26:08;99106.72;;;10.44;100.00
8051;BME280;4068;42.158;24.732;2023-04-15T05:28:34;99101.72;;;10.50;100.00
8051;BME280;4068;42.158;24.732;2023-04-15T05:31:00;99079.47;;;10.42;100.00
8051;BME280;4068;42.158;24.732;2023-04-15T05:33:25;99120.59;;;10.67;100.00
8051;BME280;4068;42.158;24.732;2023-04-15T05:35:51;99120.91;;;10.74;100.00
8051;BME280;4068;42.158;24.732;2023-04-15T05:38:17;99123.00;;;10.80;100.00
8051;BME280;4068;42.158;24.732;2023-04-15T05:40:42;99115.59;;;10.74;100.00
8051;BME280;4068;42.158;24.732;2023-04-15T05:43:08;99119.34;;;10.71;100.00
8051;BME280;4068;42.158;24.732;2023-04-15T05:45:33;99130.97;;;10.80;100.00
8051;BME280;4068;42.158;24.732;2023-04-15T05:47:58;99126.81;;;10.97;100.00
8051;BME280;4068;42.158;24.732;2023-04-15T05:50:24;99134.84;;;11.16;100.00
8051;BME280;4068;42.158;24.732;2023-04-15T05:52:50;99132.91;;;11.38;100.00
8051;BME280;4068;42.158;24.732;2023-04-15T05:55:15;99144.50;;;11.56;100.00
8051;BME280;4068;42.158;24.732;2023-04-15T05:57:41;99128.72;;;11.65;100.00
8051;BME280;4068;42.158;24.732;2023-04-15T06:00:07;99141.84;;;11.76;99.91
8051;BME280;4068;42.158;24.732;2023-04-15T06:02:32;99151.63;;;11.95;98.89
8051;BME280;4068;42.158;24.732;2023-04-15T06:04:58;99150.66;;;12.06;97.39
8051;BME280;4068;42.158;24.732;2023-04-15T06:07:24;99137.75;;;12.11;96.87
8051;BME280;4068;42.158;24.732;2023-04-15T06:09:49;99140.53;;;12.19;97.29
8051;BME280;4068;42.158;24.732;2023-04-15T06:12:15;99158.13;;;12.40;95.60
8051;BME280;4068;42.158;24.732;2023-04-15T06:14:41;99154.00;;;12.55;97.50
8051;BME280;4068;42.158;24.732;2023-04-15T06:17:07;99161.09;;;12.74;97.39
8051;BME280;4068;42.158;24.732;2023-04-15T06:19:34;99163.97;;;12.81;95.73
8051;BME280;4068;42.158;24.732;2023-04-15T06:22:01;99168.19;;;13.11;94.98
8051;BME280;4068;42.158;24.732;2023-04-15T06:24:26;99135.31;;;13.03;93.89
8051;BME280;4068;42.158;24.732;2023-04-15T06:26:52;99170.63;;;13.23;93.20
8051;BME280;4068;42.158;24.732;2023-04-15T06:29:17;99174.50;;;13.38;94.43
8051;BME280;4068;42.158;24.732;2023-04-15T06:31:43;99175.16;;;13.40;94.17
8051;BME280;4068;42.158;24.732;2023-04-15T06:34:08;99176.19;;;13.29;94.03
8051;BME280;4068;42.158;24.732;2023-04-15T06:36:34;99141.34;;;13.23;98.11
8051;BME280;4068;42.158;24.732;2023-04-15T06:38:59;99168.94;;;13.68;95.22
8051;BME280;4068;42.158;24.732;2023-04-15T06:41:25;99147.69;;;13.76;93.22
8051;BME280;4068;42.158;24.732;2023-04-15T06:43:50;99172.59;;;13.85;93.50
8051;BME280;4068;42.158;24.732;2023-04-15T06:46:16;99172.19;;;13.97;95.93
8051;BME280;4068;42.158;24.732;2023-04-15T06:48:41;99167.97;;;14.13;95.14
8051;BME280;4068;42.158;24.732;2023-04-15T06:51:07;99169.97;;;14.37;93.68
8051;BME280;4068;42.158;24.732;2023-04-15T06:53:32;99171.81;;;14.37;94.35
8051;BME280;4068;42.158;24.732;2023-04-15T06:55:59;99156.25;;;14.32;93.55
8051;BME280;4068;42.158;24.732;2023-04-15T06:58:25;99177.22;;;14.53;94.70
8051;BME280;4068;42.158;24.732;2023-04-15T07:00:51;99158.97;;;14.40;94.97
8051;BME280;4068;42.158;24.732;2023-04-15T07:03:17;99182.22;;;14.48;96.12
8051;BME280;4068;42.158;24.732;2023-04-15T07:05:42;99179.84;;;14.45;96.83
8051;BME280;4068;42.158;24.732;2023-04-15T07:08:07;99157.25;;;14.57;96.78
8051;BME280;4068;42.158;24.732;2023-04-15T07:10:33;99183.38;;;14.72;96.56
8051;BME280;4068;42.158;24.732;2023-04-15T07:12:59;99154.88;;;14.80;96.58
8051;BME280;4068;42.158;24.732;2023-04-15T07:15:25;99170.00;;;15.06;95.97
8051;BME280;4068;42.158;24.732;2023-04-15T07:17:50;99168.19;;;15.07;95.96
8051;BME280;4068;42.158;24.732;2023-04-15T07:20:16;99181.75;;;15.30;94.09
8051;BME280;4068;42.158;24.732;2023-04-15T07:22:41;99184.28;;;15.31;93.97
8051;BME280;4068;42.158;24.732;2023-04-15T07:25:07;99172.78;;;15.39;94.03
8051;BME280;4068;42.158;24.732;2023-04-15T07:27:33;99183.75;;;15.19;94.55
8051;BME280;4068;42.158;24.732;2023-04-15T07:29:58;99155.72;;;15.24;95.15
8051;BME280;4068;42.158;24.732;2023-04-15T07:32:24;99193.31;;;15.39;95.37
8051;BME280;4068;42.158;24.732;2023-04-15T07:34:50;99193.34;;;15.55;94.67
8051;BME280;4068;42.158;24.732;2023-04-15T07:37:15;99182.50;;;15.57;93.87
8051;BME280;4068;42.158;24.732;2023-04-15T07:39:41;99160.25;;;15.56;93.67
8051;BME280;4068;42.158;24.732;2023-04-15T07:42:08;99194.78;;;16.00;92.56
8051;BME280;4068;42.158;24.732;2023-04-15T07:44:33;99160.16;;;15.82;90.67
8051;BME280;4068;42.158;24.732;2023-04-15T07:46:59;99186.88;;;15.99;91.75
8051;BME280;4068;42.158;24.732;2023-04-15T07:49:25;99182.06;;;16.02;90.40
8051;BME280;4068;42.158;24.732;2023-04-15T07:51:50;99155.00;;;15.89;89.87
8051;BME280;4068;42.158;24.732;2023-04-15T07:54:16;99152.81;;;16.01;89.28
8051;BME280;4068;42.158;24.732;2023-04-15T07:56:41;99193.72;;;16.34;88.58
8051;BME280;4068;42.158;24.732;2023-04-15T07:59:07;99148.09;;;16.28;86.08
8051;BME280;4068;42.158;24.732;2023-04-15T08:01:33;99190.22;;;16.50;83.24
8051;BME280;4068;42.158;24.732;2023-04-15T08:03:59;99196.56;;;16.41;85.01
8051;BME280;4068;42.158;24.732;2023-04-15T08:06:24;99182.03;;;16.35;84.70
8051;BME280;4068;42.158;24.732;2023-04-15T08:08:49;99172.31;;;16.43;82.60
8051;BME280;4068;42.158;24.732;2023-04-15T08:11:16;99188.28;;;16.67;82.69
8051;BME280;4068;42.158;24.732;2023-04-15T08:13:41;99177.38;;;16.85;79.66
8051;BME280;4068;42.158;24.732;2023-04-15T08:16:20;99189.41;;;16.98;79.27
8051;BME280;4068;42.158;24.732;2023-04-15T08:18:47;99184.06;;;16.98;79.02
8051;BME280;4068;42.158;24.732;2023-04-15T08:21:13;99188.56;;;16.97;78.39
8051;BME280;4068;42.158;24.732;2023-04-15T08:23:39;99188.56;;;16.97;77.92
8051;BME280;4068;42.158;24.732;2023-04-15T08:26:04;99184.66;;;17.16;78.71
8051;BME280;4068;42.158;24.732;2023-04-15T08:28:30;99181.44;;;17.21;77.67
8051;BME280;4068;42.158;24.732;2023-04-15T08:30:56;99174.00;;;17.31;77.00
8051;BME280;4068;42.158;24.732;2023-04-15T08:33:21;99152.94;;;17.28;74.73
8051;BME280;4068;42.158;24.732;2023-04-15T08:35:47;99171.50;;;16.98;75.74
8051;BME280;4068;42.158;24.732;2023-04-15T08:38:13;99181.22;;;16.99;75.66
8051;BME280;4068;42.158;24.732;2023-04-15T08:40:43;99181.41;;;16.89;73.83
8051;BME280;4068;42.158;24.732;2023-04-15T08:43:20;99168.56;;;16.68;75.08
8051;BME280;4068;42.158;24.732;2023-04-15T08:45:47;99157.56;;;17.03;73.94
8051;BME280;4068;42.158;24.732;2023-04-15T08:48:14;99155.44;;;17.30;71.20
8051;BME280;4068;42.158;24.732;2023-04-15T08:50:41;99171.13;;;17.64;69.62
8051;BME280;4068;42.158;24.732;2023-04-15T08:53:08;99162.41;;;17.85;66.99
8051;BME280;4068;42.158;24.732;2023-04-15T08:55:35;99184.94;;;18.22;65.15
8051;BME280;4068;42.158;24.732;2023-04-15T08:58:01;99171.06;;;18.34;63.56
8051;BME280;4068;42.158;24.732;2023-04-15T09:00:31;99177.88;;;18.74;63.29
8051;BME280;4068;42.158;24.732;2023-04-15T09:02:58;99174.81;;;18.92;61.95
8051;BME280;4068;42.158;24.732;2023-04-15T09:05:23;99172.81;;;19.31;63.05
8051;BME280;4068;42.158;24.732;2023-04-15T09:07:50;99159.03;;;19.77;61.37
8051;BME280;4068;42.158;24.732;2023-04-15T09:10:15;99141.53;;;20.10;58.17
8051;BME280;4068;42.158;24.732;2023-04-15T09:12:41;99159.59;;;20.44;57.98
8051;BME280;4068;42.158;24.732;2023-04-15T09:15:07;99157.72;;;20.73;56.67
8051;BME280;4068;42.158;24.732;2023-04-15T09:17:41;99147.88;;;20.94;54.86
8051;BME280;4068;42.158;24.732;2023-04-15T09:22:38;99137.69;;;20.89;52.49
8051;BME280;4068;42.158;24.732;2023-04-15T09:25:24;99143.63;;;20.71;54.24
8051;BME280;4068;42.158;24.732;2023-04-15T09:27:58;99147.44;;;20.55;54.98
8051;BME280;4068;42.158;24.732;2023-04-15T09:30:24;99142.63;;;20.15;54.99
8051;BME280;4068;42.158;24.732;2023-04-15T09:32:56;99131.94;;;20.29;53.14
8051;BME280;4068;42.158;24.732;2023-04-15T09:35:23;99131.50;;;20.60;52.63
8051;BME280;4068;42.158;24.732;2023-04-15T09:37:49;99130.03;;;20.58;52.73
8051;BME280;4068;42.158;24.732;2023-04-15T09:40:50;99132.66;;;20.73;54.50
8051;BME280;4068;42.158;24.732;2023-04-15T09:43:15;99128.66;;;21.03;54.02
8051;BME280;4068;42.158;24.732;2023-04-15T09:45:52;99127.69;;;21.45;51.91
8051;BME280;4068;42.158;24.732;2023-04-15T09:48:24;99093.06;;;21.48;50.31
8051;BME280;4068;42.158;24.732;2023-04-15T09:50:57;99116.78;;;22.06;49.23
8051;BME280;4068;42.158;24.732;2023-04-15T09:53:23;99099.94;;;22.38;48.58
8051;BME280;4068;42.158;24.732;2023-04-15T09:55:55;99127.97;;;23.09;46.80
8051;BME280;4068;42.158;24.732;2023-04-15T09:58:25;99117.38;;;23.07;45.90
8051;BME280;4068;42.158;24.732;2023-04-15T10:00:53;99116.22;;;22.83;46.34
8051;BME280;4068;42.158;24.732;2023-04-15T10:05:51;99125.03;;;22.32;45.95
8051;BME280;4068;42.158;24.732;2023-04-15T10:08:19;99122.97;;;22.27;45.33
8051;BME280;4068;42.158;24.732;2023-04-15T10:10:46;99120.13;;;22.02;44.70
8051;BME280;4068;42.158;24.732;2023-04-15T10:13:20;99115.53;;;22.29;43.55
8051;BME280;4068;42.158;24.732;2023-04-15T10:18:18;99097.22;;;22.24;41.89
8051;BME280;4068;42.158;24.732;2023-04-15T10:20:45;99097.03;;;22.33;42.17
8051;BME280;4068;42.158;24.732;2023-04-15T10:23:11;99094.78;;;22.16;43.12
8051;BME280;4068;42.158;24.732;2023-04-15T10:25:37;99085.59;;;22.31;43.27
8051;BME280;4068;42.158;24.732;2023-04-15T10:28:05;99085.28;;;22.72;42.73
8051;BME280;4068;42.158;24.732;2023-04-15T10:30:32;99073.00;;;22.83;43.48
8051;BME280;4068;42.158;24.732;2023-04-15T10:32:59;99071.66;;;22.47;46.48
8051;BME280;4068;42.158;24.732;2023-04-15T10:35:25;99052.00;;;22.00;45.88
8051;BME280;4068;42.158;24.732;2023-04-15T10:37:51;99071.31;;;21.97;45.17
8051;BME280;4068;42.158;24.732;2023-04-15T10:40:24;99060.06;;;22.27;45.53
8051;BME280;4068;42.158;24.732;2023-04-15T10:42:52;99055.69;;;22.39;46.27
8051;BME280;4068;42.158;24.732;2023-04-15T10:45:18;99032.47;;;22.77;45.62
8051;BME280;4068;42.158;24.732;2023-04-15T10:47:44;99067.63;;;23.15;45.17
8051;BME280;4068;42.158;24.732;2023-04-15T10:50:09;99054.91;;;22.77;45.33
8051;BME280;4068;42.158;24.732;2023-04-15T10:52:39;99043.16;;;22.51;47.08
8051;BME280;4068;42.158;24.732;2023-04-15T10:55:19;99054.38;;;22.55;47.00
8051;BME280;4068;42.158;24.732;2023-04-15T10:57:45;99057.34;;;22.27;47.03
8051;BME280;4068;42.158;24.732;2023-04-15T11:05:17;99066.31;;;22.00;45.76
8051;BME280;4068;42.158;24.732;2023-04-15T11:12:46;99037.91;;;21.91;46.36
8051;BME280;4068;42.158;24.732;2023-04-15T11:15:34;99051.19;;;21.93;43.79
8051;BME280;4068;42.158;24.732;2023-04-15T11:18:11;99058.88;;;21.89;45.44
8051;BME280;4068;42.158;24.732;2023-04-15T11:20:39;99022.16;;;21.68;45.02
8051;BME280;4068;42.158;24.732;2023-04-15T11:23:05;99035.53;;;22.21;44.94
8051;BME280;4068;42.158;24.732;2023-04-15T11:25:32;99014.13;;;22.40;42.99
8051;BME280;4068;42.158;24.732;2023-04-15T11:28:00;99039.22;;;22.47;43.67
8051;BME280;4068;42.158;24.732;2023-04-15T11:30:28;99039.44;;;22.52;43.30
8051;BME280;4068;42.158;24.732;2023-04-15T11:32:57;99032.44;;;22.83;42.88
8051;BME280;4068;42.158;24.732;2023-04-15T11:35:23;99021.63;;;22.83;44.05
8051;BME280;4068;42.158;24.732;2023-04-15T11:37:49;99006.81;;;22.86;44.53
8051;BME280;4068;42.158;24.732;2023-04-15T11:40:15;99031.59;;;22.83;43.81
8051;BME280;4068;42.158;24.732;2023-04-15T11:42:44;99028.91;;;22.83;43.59
8051;BME280;4068;42.158;24.732;2023-04-15T11:47:36;99013.31;;;22.33;44.83
8051;BME280;4068;42.158;24.732;2023-04-15T11:52:54;99013.09;;;22.41;45.39
8051;BME280;4068;42.158;24.732;2023-04-15T11:55:21;99011.66;;;22.25;46.25
8051;BME280;4068;42.158;24.732;2023-04-15T11:57:49;99012.69;;;22.31;45.60
8051;BME280;4068;42.158;24.732;2023-04-15T12:00:15;99004.38;;;22.19;46.34
8051;BME280;4068;42.158;24.732;2023-04-15T12:02:42;99005.69;;;22.03;45.96
8051;BME280;4068;42.158;24.732;2023-04-15T12:05:10;99004.88;;;22.02;46.62
8051;BME280;4068;42.158;24.732;2023-04-15T12:08:01;99000.50;;;21.95;46.23
8051;BME280;4068;42.158;24.732;2023-04-15T12:10:27;98999.09;;;21.45;47.10
8051;BME280;4068;42.158;24.732;2023-04-15T12:12:52;99000.78;;;21.66;46.95
8051;BME280;4068;42.158;24.732;2023-04-15T12:15:21;98992.22;;;21.36;47.48
8051;BME280;4068;42.158;24.732;2023-04-15T12:17:48;98993.00;;;20.90;49.23
8051;BME280;4068;42.158;24.732;2023-04-15T12:20:20;98996.78;;;21.15;49.53
8051;BME280;4068;42.158;24.732;2023-04-15T12:22:46;98997.03;;;21.41;48.48
8051;BME280;4068;42.158;24.732;2023-04-15T12:25:11;98991.00;;;21.72;47.90
8051;BME280;4068;42.158;24.732;2023-04-15T12:27:37;98983.88;;;22.04;46.37
8051;BME280;4068;42.158;24.732;2023-04-15T12:30:04;98977.78;;;22.36;46.40
8051;BME280;4068;42.158;24.732;2023-04-15T12:32:34;98985.47;;;22.26;46.05
8051;BME280;4068;42.158;24.732;2023-04-15T12:34:59;98997.59;;;22.03;48.22
8051;BME280;4068;42.158;24.732;2023-04-15T12:37:25;98992.56;;;22.13;48.58
8051;BME280;4068;42.158;24.732;2023-04-15T12:39:51;98986.31;;;22.26;48.02
8051;BME280;4068;42.158;24.732;2023-04-15T12:42:18;98980.75;;;22.66;46.91
8051;BME280;4068;42.158;24.732;2023-04-15T12:44:43;98978.03;;;23.12;45.71
8051;BME280;4068;42.158;24.732;2023-04-15T12:47:11;98985.00;;;23.26;45.14
8051;BME280;4068;42.158;24.732;2023-04-15T12:49:37;98989.03;;;23.42;45.30
8051;BME280;4068;42.158;24.732;2023-04-15T12:52:03;98992.00;;;23.34;46.12
8051;BME280;4068;42.158;24.732;2023-04-15T12:54:30;98967.75;;;23.20;47.97
8051;BME280;4068;42.158;24.732;2023-04-15T12:56:56;98988.16;;;23.92;45.92
8051;BME280;4068;42.158;24.732;2023-04-15T12:59:22;98997.34;;;24.28;45.24
8051;BME280;4068;42.158;24.732;2023-04-15T13:01:50;98994.09;;;24.38;44.22
8051;BME280;4068;42.158;24.732;2023-04-15T13:04:18;98994.91;;;24.57;43.93
8051;BME280;4068;42.158;24.732;2023-04-15T13:06:44;99001.31;;;24.07;44.58
8051;BME280;4068;42.158;24.732;2023-04-15T13:09:28;98989.16;;;24.16;45.08
8051;BME280;4068;42.158;24.732;2023-04-15T13:11:53;98994.19;;;23.94;45.42
8051;BME280;4068;42.158;24.732;2023-04-15T13:14:20;98974.63;;;23.41;46.91
8051;BME280;4068;42.158;24.732;2023-04-15T13:16:45;98960.25;;;23.22;48.23
8051;BME280;4068;42.158;24.732;2023-04-15T13:19:11;98986.03;;;23.50;48.16
8051;BME280;4068;42.158;24.732;2023-04-15T13:21:36;98989.47;;;23.39;48.15
8051;BME280;4068;42.158;24.732;2023-04-15T13:24:03;98987.69;;;23.51;47.85
8051;BME280;4068;42.158;24.732;2023-04-15T13:26:28;98981.00;;;23.54;48.10
8051;BME280;4068;42.158;24.732;2023-04-15T13:28:55;98978.69;;;24.01;47.35
8051;BME280;4068;42.158;24.732;2023-04-15T13:31:20;98977.88;;;24.01;47.41